Time;durP1;ratioP1;P1;durP2;ratioP2;P2;SDS_P1;SDS_P2;PMS_P1;PMS_P2;Temp;Humidity;BMP_temperature;BMP_pressure;BME280_temperature;BME280_humidity;BME280_pressure;Samples;Min_cycle;Max_cycle;Signal;HPM_P1;HPM_P2
2021/10/21 00:01:22;;;;;;;37.58;6.88;;;14.10;99.90;;;;;;6182566;23;20009;-92
2021/10/21 00:03:48;;;;;;;46.03;5.95;;;14.20;99.90;;;;;;6182197;23;20358;-90
2021/10/21 00:06:14;;;;;;;43.10;7.18;;;14.30;99.90;;;;;;6182243;23;20088;-90
2021/10/21 00:08:40;;;;;;;39.75;5.75;;;14.40;99.90;;;;;;6183687;23;20004;-90
2021/10/21 00:11:05;;;;;;;38.35;5.47;;;14.40;99.90;;;;;;6183623;23;20001;-89
2021/10/21 00:13:31;;;;;;;40.47;5.53;;;14.50;99.90;;;;;;6183304;23;20076;-89
2021/10/21 00:15:57;;;;;;;37.92;5.80;;;14.70;99.90;;;;;;6183316;23;20017;-89
2021/10/21 00:18:23;;;;;;;42.78;7.20;;;14.70;99.90;;;;;;6181307;23;20068;-89
2021/10/21 00:20:49;;;;;;;40.17;7.47;;;14.70;99.90;;;;;;6183180;23;20004;-89
2021/10/21 00:23:14;;;;;;;34.92;6.13;;;14.70;99.90;;;;;;6183751;23;20001;-89
2021/10/21 00:25:40;;;;;;;36.53;6.05;;;14.70;99.90;;;;;;6183311;23;20520;-88
2021/10/21 00:28:06;;;;;;;48.17;7.03;;;14.80;99.90;;;;;;6181396;23;20006;-88
2021/10/21 00:30:31;;;;;;;38.50;6.43;;;14.80;99.90;;;;;;6184027;23;20001;-89
2021/10/21 00:32:57;;;;;;;44.40;6.38;;;14.80;99.90;;;;;;6181873;23;20005;-89
2021/10/21 00:35:23;;;;;;;52.95;7.10;;;14.90;99.90;;;;;;6181600;23;20012;-89
2021/10/21 00:37:49;;;;;;;46.88;7.25;;;14.90;99.90;;;;;;6181638;23;20088;-89
2021/10/21 00:40:14;;;;;;;34.67;5.88;;;15.00;99.90;;;;;;6183010;23;20095;-89
2021/10/21 00:42:40;;;;;;;47.15;6.47;;;15.00;99.90;;;;;;6182988;23;20016;-89
2021/10/21 00:45:06;;;;;;;32.45;4.65;;;14.90;99.90;;;;;;6184017;23;20509;-89
2021/10/21 00:47:32;;;;;;;40.65;5.13;;;14.90;99.90;;;;;;6184290;23;20096;-89
2021/10/21 00:49:58;;;;;;;40.22;4.60;;;14.90;99.90;;;;;;6181541;23;20394;-88
2021/10/21 00:52:24;;;;;;;36.95;5.47;;;14.80;99.90;;;;;;6182661;23;20461;-88
2021/10/21 00:54:52;;;;;;;41.38;7.47;;;14.80;99.90;;;;;;6183141;23;20001;-89
2021/10/21 00:57:18;;;;;;;50.42;6.70;;;14.80;99.90;;;;;;6181089;23;20095;-88
2021/10/21 00:59:45;;;;;;;35.85;6.22;;;14.80;99.90;;;;;;6181026;23;20005;-89
2021/10/21 01:02:11;;;;;;;36.72;5.30;;;14.80;99.90;;;;;;6183220;23;20015;-89
2021/10/21 01:04:38;;;;;;;29.58;5.50;;;14.90;99.90;;;;;;6181168;23;20017;-88
2021/10/21 01:07:05;;;;;;;36.80;5.55;;;15.00;99.90;;;;;;6182994;23;20241;-89
2021/10/21 01:09:33;;;;;;;32.45;5.75;;;15.10;99.90;;;;;;6182933;23;20001;-89
2021/10/21 01:12:00;;;;;;;42.05;6.35;;;15.10;99.90;;;;;;6181157;23;20008;-88
2021/10/21 01:14:26;;;;;;;41.50;6.13;;;15.10;99.90;;;;;;6181253;23;20009;-91
2021/10/21 01:16:52;;;;;;;37.15;5.78;;;15.20;99.90;;;;;;6181114;23;20095;-88
2021/10/21 01:19:20;;;;;;;40.63;4.93;;;15.20;99.90;;;;;;6181042;23;20445;-88
2021/10/21 01:21:48;;;;;;;37.28;5.47;;;15.20;99.90;;;;;;6182872;23;20004;-88
2021/10/21 01:24:15;;;;;;;30.17;5.10;;;15.20;99.90;;;;;;6181048;23;20334;-89
2021/10/21 01:26:45;;;;;;;42.15;5.90;;;15.20;99.90;;;;;;6181535;23;20465;-88
2021/10/21 01:29:10;;;;;;;39.55;6.57;;;15.20;99.90;;;;;;6182415;23;20080;-88
2021/10/21 01:31:40;;;;;;;36.25;5.82;;;15.20;99.90;;;;;;6182714;23;20025;-89
2021/10/21 01:34:11;;;;;;;43.25;6.65;;;15.10;99.90;;;;;;6182737;23;20001;-89
2021/10/21 01:36:38;;;;;;;41.92;6.45;;;15.00;99.90;;;;;;6180794;23;20005;-89
2021/10/21 01:39:07;;;;;;;49.50;8.77;;;14.90;99.90;;;;;;6181143;23;20400;-89
2021/10/21 01:41:33;;;;;;;41.22;5.97;;;14.90;99.90;;;;;;6181123;23;20001;-89
2021/10/21 01:43:59;;;;;;;42.95;7.30;;;14.80;99.90;;;;;;6180752;23;20409;-90
2021/10/21 01:46:26;;;;;;;38.10;5.68;;;14.80;99.90;;;;;;6182512;23;20469;-90
2021/10/21 01:48:52;;;;;;;36.08;5.28;;;14.80;99.90;;;;;;6183047;23;20358;-89
2021/10/21 01:51:17;;;;;;;37.13;5.40;;;14.90;99.90;;;;;;6180867;23;20009;-86
2021/10/21 01:53:43;;;;;;;34.58;4.88;;;14.90;99.90;;;;;;6180626;23;20504;-85
2021/10/21 01:56:09;;;;;;;34.17;6.28;;;14.60;99.90;;;;;;6182477;23;20369;-86
2021/10/21 01:58:35;;;;;;;38.63;6.50;;;14.50;99.90;;;;;;6182286;23;20005;-87
2021/10/21 02:01:01;;;;;;;29.95;5.25;;;14.30;99.90;;;;;;6182495;23;20100;-90
2021/10/21 02:03:27;;;;;;;32.25;5.30;;;14.30;99.90;;;;;;6181052;23;20389;-91
2021/10/21 02:05:53;;;;;;;27.17;4.50;;;14.30;99.90;;;;;;6181528;23;20009;-93
2021/10/21 02:08:18;;;;;;;36.70;5.45;;;14.30;99.90;;;;;;6181316;23;20072;-93
2021/10/21 02:10:45;;;;;;;29.65;4.53;;;14.20;99.90;;;;;;6181937;23;20045;-91
2021/10/21 02:13:10;;;;;;;31.00;5.00;;;14.20;99.90;;;;;;6181054;23;20080;-92
2021/10/21 02:15:36;;;;;;;29.17;3.85;;;14.20;99.90;;;;;;6181105;23;20079;-90
2021/10/21 02:18:03;;;;;;;23.63;4.18;;;14.20;99.90;;;;;;6180866;23;20024;-89
2021/10/21 02:20:29;;;;;;;27.67;4.75;;;14.20;99.90;;;;;;6182604;23;20411;-90
2021/10/21 02:22:54;;;;;;;32.67;3.60;;;14.20;99.90;;;;;;6182150;23;20060;-90
2021/10/21 02:25:20;;;;;;;30.38;4.18;;;14.20;99.90;;;;;;6180712;23;20009;-89
2021/10/21 02:27:46;;;;;;;24.13;3.67;;;14.30;99.90;;;;;;6182128;23;19997;-89
2021/10/21 02:30:14;;;;;;;27.13;4.72;;;14.30;99.90;;;;;;6182080;23;20008;-91
2021/10/21 02:32:41;;;;;;;26.05;3.80;;;14.40;99.90;;;;;;6182224;23;20001;-88
2021/10/21 02:35:08;;;;;;;38.90;4.65;;;14.40;99.90;;;;;;6156381;23;20253;-89
2021/10/21 02:37:35;;;;;;;23.00;3.92;;;14.40;99.90;;;;;;6183661;23;20001;-89
2021/10/21 02:40:02;;;;;;;15.93;2.80;;;14.50;99.90;;;;;;6184915;23;20001;-89
2021/10/21 02:42:28;;;;;;;23.17;2.97;;;14.50;99.90;;;;;;6182517;23;20529;-89
2021/10/21 02:44:54;;;;;;;20.17;3.30;;;14.50;99.90;;;;;;6182611;23;20037;-89
2021/10/21 02:47:19;;;;;;;22.50;3.40;;;14.40;99.90;;;;;;6184142;23;20075;-89
2021/10/21 02:49:45;;;;;;;26.52;3.00;;;14.40;99.90;;;;;;6182535;23;20005;-89
2021/10/21 02:52:11;;;;;;;20.40;2.83;;;14.30;99.90;;;;;;6182681;23;20307;-89
2021/10/21 02:54:37;;;;;;;25.30;3.20;;;14.30;99.90;;;;;;6184342;23;20005;-89
2021/10/21 02:57:03;;;;;;;21.27;3.50;;;14.30;99.90;;;;;;6184217;23;20445;-89
2021/10/21 02:59:28;;;;;;;22.63;3.33;;;14.30;99.90;;;;;;6182562;23;20446;-88
2021/10/21 03:01:54;;;;;;;21.85;2.90;;;14.30;99.90;;;;;;6184410;23;19997;-88
2021/10/21 03:04:20;;;;;;;25.83;4.45;;;14.40;99.90;;;;;;6184147;23;20009;-88
2021/10/21 03:06:46;;;;;;;32.13;3.70;;;14.40;99.90;;;;;;6184296;23;20390;-88
2021/10/21 03:09:12;;;;;;;17.20;3.15;;;14.40;99.90;;;;;;6185353;23;20015;-88
2021/10/21 03:11:38;;;;;;;25.10;3.40;;;14.40;99.90;;;;;;6184166;23;20004;-88
2021/10/21 03:14:04;;;;;;;24.52;3.38;;;14.50;99.90;;;;;;6183186;23;20005;-88
2021/10/21 03:16:31;;;;;;;31.35;3.72;;;14.50;99.90;;;;;;6182141;23;20096;-89
2021/10/21 03:18:57;;;;;;;30.95;3.70;;;14.50;99.90;;;;;;6184026;23;20093;-88
2021/10/21 03:21:22;;;;;;;28.50;5.18;;;14.50;99.90;;;;;;6183728;23;20037;-87
2021/10/21 03:23:48;;;;;;;18.00;3.08;;;14.50;99.90;;;;;;6183820;23;20349;-87
2021/10/21 03:26:14;;;;;;;23.73;2.88;;;14.50;99.90;;;;;;6182165;23;20001;-87
2021/10/21 03:28:39;;;;;;;24.30;3.55;;;14.40;99.90;;;;;;6182095;23;20009;-88
2021/10/21 03:31:05;;;;;;;15.50;2.55;;;14.40;99.90;;;;;;6183876;23;20354;-87
2021/10/21 03:33:31;;;;;;;21.83;3.45;;;14.40;99.90;;;;;;6182148;23;20386;-87
2021/10/21 03:35:57;;;;;;;25.30;4.10;;;14.40;99.90;;;;;;6183798;23;20023;-87
2021/10/21 03:38:23;;;;;;;29.63;3.53;;;14.40;99.90;;;;;;6182058;23;20096;-87
2021/10/21 03:40:49;;;;;;;20.63;3.50;;;14.40;99.90;;;;;;6183720;23;20033;-87
2021/10/21 03:43:15;;;;;;;25.92;3.22;;;14.40;99.90;;;;;;6183772;23;20028;-87
2021/10/21 03:45:41;;;;;;;22.83;2.97;;;14.40;99.90;;;;;;6184072;23;20330;-87
2021/10/21 03:48:06;;;;;;;23.30;3.28;;;14.40;99.90;;;;;;6183644;23;20001;-87
2021/10/21 03:50:32;;;;;;;23.83;2.72;;;14.40;99.90;;;;;;6181874;23;20068;-87
2021/10/21 03:52:57;;;;;;;22.58;3.15;;;14.40;99.90;;;;;;6181564;23;20001;-87
2021/10/21 03:55:23;;;;;;;22.98;2.72;;;14.40;99.90;;;;;;6181953;23;20449;-87
2021/10/21 03:57:49;;;;;;;25.27;3.35;;;14.40;99.90;;;;;;6183289;23;20004;-87
2021/10/21 04:00:15;;;;;;;26.05;3.38;;;14.40;99.90;;;;;;6181786;23;20009;-87
2021/10/21 04:02:41;;;;;;;26.73;3.70;;;14.30;99.90;;;;;;6181767;23;20032;-87
2021/10/21 04:05:08;;;;;;;22.92;3.33;;;14.30;99.90;;;;;;6182043;23;20071;-87
2021/10/21 04:07:34;;;;;;;14.35;2.42;;;14.30;99.90;;;;;;6183206;23;20009;-88
2021/10/21 04:10:01;;;;;;;26.60;3.33;;;14.20;99.90;;;;;;6183514;23;20056;-87
2021/10/21 04:12:27;;;;;;;24.55;3.42;;;14.30;99.90;;;;;;6181752;23;20005;-87
2021/10/21 04:14:52;;;;;;;17.40;3.15;;;14.30;99.90;;;;;;6183229;23;20307;-87
2021/10/21 04:17:19;;;;;;;26.48;3.13;;;14.30;99.90;;;;;;6181647;23;20029;-87
2021/10/21 04:19:46;;;;;;;21.05;3.67;;;14.30;99.90;;;;;;6183199;23;20028;-87
2021/10/21 04:22:12;;;;;;;33.00;4.00;;;14.30;99.90;;;;;;6183474;23;20438;-87
2021/10/21 04:24:38;;;;;;;22.25;3.08;;;14.30;99.90;;;;;;6183554;23;20020;-87
2021/10/21 04:27:04;;;;;;;25.17;3.40;;;14.30;99.90;;;;;;6183824;23;20366;-87
2021/10/21 04:29:29;;;;;;;31.88;4.10;;;14.30;99.90;;;;;;6183277;23;20005;-87
2021/10/21 04:31:55;;;;;;;25.88;4.28;;;14.30;99.90;;;;;;6184042;23;20423;-87
2021/10/21 04:34:21;;;;;;;26.88;3.47;;;14.40;99.90;;;;;;6183266;23;20121;-87
2021/10/21 04:36:46;;;;;;;25.55;4.35;;;14.30;99.90;;;;;;6182965;23;20001;-87
2021/10/21 04:39:12;;;;;;;23.77;3.25;;;14.30;99.90;;;;;;6183203;23;20378;-87
2021/10/21 04:41:38;;;;;;;28.70;3.88;;;14.30;99.90;;;;;;6183096;23;20024;-87
2021/10/21 04:44:04;;;;;;;30.05;4.70;;;14.30;99.90;;;;;;6182915;23;20016;-87
2021/10/21 04:46:30;;;;;;;30.77;3.97;;;14.30;99.90;;;;;;6183082;23;20055;-87
2021/10/21 04:48:56;;;;;;;29.48;3.22;;;14.40;99.90;;;;;;6181715;23;20037;-87
2021/10/21 04:51:21;;;;;;;24.05;4.53;;;14.40;99.90;;;;;;6182992;23;20007;-87
2021/10/21 04:53:47;;;;;;;24.52;3.95;;;14.40;99.90;;;;;;6182816;23;20036;-87
2021/10/21 04:56:13;;;;;;;28.10;4.22;;;14.30;99.90;;;;;;6181239;23;20005;-87
2021/10/21 04:58:39;;;;;;;25.75;4.63;;;14.30;99.90;;;;;;6182787;23;20024;-87
2021/10/21 05:01:05;;;;;;;29.27;4.05;;;14.30;99.90;;;;;;6183313;23;20084;-87
2021/10/21 05:03:31;;;;;;;27.15;4.20;;;14.40;99.90;;;;;;6182802;23;20021;-86
2021/10/21 05:05:57;;;;;;;31.58;3.80;;;14.40;99.90;;;;;;6182996;23;20025;-87
2021/10/21 05:08:23;;;;;;;24.73;3.20;;;14.40;99.90;;;;;;6181234;23;20083;-86
2021/10/21 05:10:48;;;;;;;29.55;3.85;;;14.40;99.90;;;;;;6182485;23;20001;-87
2021/10/21 05:13:14;;;;;;;27.35;4.10;;;14.50;99.90;;;;;;6180897;23;20005;-87
2021/10/21 05:15:40;;;;;;;28.50;4.18;;;14.50;99.90;;;;;;6182381;23;20316;-87
2021/10/21 05:18:07;;;;;;;27.23;3.78;;;14.50;99.90;;;;;;6180934;23;20009;-87
2021/10/21 05:20:33;;;;;;;17.95;2.67;;;14.50;99.90;;;;;;6182916;23;20004;-87
2021/10/21 05:22:59;;;;;;;19.80;2.97;;;14.50;99.90;;;;;;6182640;23;20008;-86
2021/10/21 05:25:24;;;;;;;22.17;2.65;;;14.40;99.90;;;;;;6182859;23;20005;-87
2021/10/21 05:27:50;;;;;;;22.60;2.65;;;14.30;99.90;;;;;;6182450;23;20002;-87
2021/10/21 05:30:16;;;;;;;15.52;2.70;;;14.20;99.90;;;;;;6181361;23;20032;-86
2021/10/21 05:32:41;;;;;;;27.20;3.88;;;14.20;99.90;;;;;;6182560;23;20051;-87
2021/10/21 05:35:08;;;;;;;22.30;2.90;;;14.20;99.90;;;;;;6182268;23;20008;-86
2021/10/21 05:37:34;;;;;;;20.98;3.53;;;14.20;99.90;;;;;;6180818;23;20338;-87
2021/10/21 05:39:59;;;;;;;26.15;3.58;;;14.20;99.90;;;;;;6182402;23;20007;-87
2021/10/21 05:42:25;;;;;;;20.58;2.90;;;14.10;99.90;;;;;;6182175;23;20422;-87
2021/10/21 05:44:51;;;;;;;31.45;4.13;;;14.10;99.90;;;;;;6182965;23;20013;-87
2021/10/21 05:47:17;;;;;;;21.98;3.30;;;14.10;99.90;;;;;;6182038;23;20060;-86
2021/10/21 05:49:45;;;;;;;26.13;3.60;;;14.10;99.90;;;;;;6182317;23;20008;-86
2021/10/21 05:52:10;;;;;;;29.15;3.58;;;14.10;99.90;;;;;;6180380;23;20035;-86
2021/10/21 05:54:36;;;;;;;25.98;3.72;;;14.10;99.90;;;;;;6182289;23;20001;-90
2021/10/21 05:57:02;;;;;;;27.67;4.03;;;14.10;99.90;;;;;;6185442;23;20001;-88
2021/10/21 05:59:28;;;;;;;26.48;4.07;;;14.00;99.90;;;;;;6189447;23;20080;-88
2021/10/21 06:01:54;;;;;;;29.52;4.10;;;14.10;99.90;;;;;;6182999;23;20430;-88
2021/10/21 06:04:20;;;;;;;26.52;4.25;;;14.00;99.90;;;;;;6182166;23;20021;-89
2021/10/21 06:06:46;;;;;;;28.02;4.28;;;14.00;99.90;;;;;;6191087;23;20162;-88
2021/10/21 06:09:11;;;;;;;29.67;3.45;;;14.00;99.90;;;;;;6186555;23;20023;-90
2021/10/21 06:11:38;;;;;;;30.50;4.30;;;14.00;99.90;;;;;;6184370;23;20001;-89
2021/10/21 06:14:07;;;;;;;29.88;3.60;;;14.00;99.90;;;;;;6182471;23;20001;-89
2021/10/21 06:16:34;;;;;;;28.25;4.15;;;14.00;99.90;;;;;;6180186;23;20088;-88
2021/10/21 06:19:00;;;;;;;36.20;4.30;;;14.00;99.90;;;;;;6182286;23;20390;-89
2021/10/21 06:21:28;;;;;;;29.42;4.20;;;14.00;99.90;;;;;;6182727;23;20028;-89
2021/10/21 06:23:54;;;;;;;30.35;4.47;;;14.00;99.90;;;;;;6185045;23;20098;-89
2021/10/21 06:26:20;;;;;;;31.85;4.30;;;14.00;99.90;;;;;;6184085;23;20005;-90
2021/10/21 06:28:49;;;;;;;35.10;3.95;;;14.00;99.90;;;;;;6182158;23;20012;-90
2021/10/21 06:31:15;;;;;;;21.80;3.45;;;14.00;99.90;;;;;;6182660;23;20001;-89
2021/10/21 06:33:42;;;;;;;33.38;4.20;;;14.00;99.90;;;;;;6182490;23;20330;-89
2021/10/21 06:36:09;;;;;;;25.65;4.30;;;14.00;99.90;;;;;;6181642;23;20009;-89
2021/10/21 06:38:35;;;;;;;22.08;4.65;;;13.90;99.90;;;;;;6182444;23;20296;-89
2021/10/21 06:41:00;;;;;;;23.80;3.40;;;14.00;99.90;;;;;;6182382;23;20257;-88
2021/10/21 06:43:26;;;;;;;26.38;4.35;;;14.00;99.90;;;;;;6180472;23;20036;-89
2021/10/21 06:45:52;;;;;;;25.27;3.85;;;14.00;99.90;;;;;;6178543;23;20005;-89
2021/10/21 06:48:18;;;;;;;29.50;4.65;;;14.10;99.90;;;;;;6177833;23;20028;-89
2021/10/21 06:50:45;;;;;;;23.35;3.80;;;14.10;99.90;;;;;;6179898;23;20015;-89
2021/10/21 06:53:11;;;;;;;24.60;4.38;;;14.10;99.90;;;;;;6180163;23;20001;-88
2021/10/21 06:55:37;;;;;;;22.50;3.70;;;14.10;99.90;;;;;;6181503;23;20006;-88
2021/10/21 06:58:02;;;;;;;23.65;2.95;;;14.20;99.90;;;;;;6180949;23;20001;-88
2021/10/21 07:00:29;;;;;;;23.92;4.20;;;14.20;99.90;;;;;;6179507;23;20005;-88
2021/10/21 07:02:57;;;;;;;30.13;3.97;;;14.20;99.90;;;;;;6181549;23;20319;-89
2021/10/21 07:05:26;;;;;;;28.48;3.80;;;14.20;99.90;;;;;;6181571;23;20098;-89
2021/10/21 07:07:51;;;;;;;19.42;3.22;;;14.20;99.90;;;;;;6181210;23;20446;-88
2021/10/21 07:10:17;;;;;;;22.30;3.25;;;14.20;99.90;;;;;;6179578;23;20079;-88
2021/10/21 07:12:45;;;;;;;18.42;2.90;;;14.30;99.90;;;;;;6181938;23;20005;-89
2021/10/21 07:15:11;;;;;;;29.23;3.67;;;14.40;99.90;;;;;;6181323;23;19998;-88
2021/10/21 07:17:37;;;;;;;19.08;3.17;;;14.40;99.90;;;;;;6181473;23;20434;-90
2021/10/21 07:20:04;;;;;;;19.25;2.75;;;14.50;99.90;;;;;;6181452;23;20001;-89
2021/10/21 07:22:30;;;;;;;25.02;3.50;;;14.50;99.90;;;;;;6181451;23;20441;-88
2021/10/21 07:24:56;;;;;;;22.67;3.08;;;14.60;99.90;;;;;;6181347;23;20136;-90
2021/10/21 07:27:22;;;;;;;15.63;2.63;;;14.70;99.90;;;;;;6181819;23;20003;-89
2021/10/21 07:29:48;;;;;;;22.38;2.92;;;14.70;99.90;;;;;;6184354;23;20009;-77
2021/10/21 07:32:14;;;;;;;21.92;2.45;;;14.80;99.90;;;;;;6184047;23;20008;-74
2021/10/21 07:34:42;;;;;;;30.33;3.72;;;14.80;99.90;;;;;;6183558;23;20438;-73
2021/10/21 07:37:11;;;;;;;21.75;3.08;;;14.80;99.90;;;;;;6183580;23;20033;-73
2021/10/21 07:39:41;;;;;;;19.10;2.28;;;14.90;99.90;;;;;;6186040;23;20071;-73
2021/10/21 07:42:11;;;;;;;17.92;3.20;;;14.90;99.90;;;;;;6183127;23;20006;-73
2021/10/21 07:44:41;;;;;;;19.77;3.20;;;15.00;99.90;;;;;;6183288;23;20453;-73
2021/10/21 07:47:07;;;;;;;26.55;3.03;;;15.00;99.90;;;;;;6182815;23;20001;-73
2021/10/21 07:49:32;;;;;;;22.05;2.67;;;15.10;99.90;;;;;;6183180;23;20032;-73
2021/10/21 07:51:59;;;;;;;28.30;3.50;;;15.20;99.90;;;;;;6182882;23;20024;-74
2021/10/21 07:54:27;;;;;;;18.08;3.08;;;15.20;99.90;;;;;;6182904;23;20009;-73
2021/10/21 07:56:53;;;;;;;29.58;3.33;;;15.20;99.90;;;;;;6182845;23;20001;-74
2021/10/21 07:59:19;;;;;;;20.52;2.90;;;15.30;99.90;;;;;;6182612;23;20342;-73
2021/10/21 08:01:45;;;;;;;24.35;2.95;;;15.40;99.90;;;;;;6182942;23;19997;-73
2021/10/21 08:04:14;;;;;;;23.35;2.95;;;15.50;99.90;;;;;;6182779;23;20020;-73
2021/10/21 08:06:43;;;;;;;24.52;3.30;;;15.70;99.90;;;;;;6182823;23;20244;-73
2021/10/21 08:09:09;;;;;;;24.65;4.35;;;15.80;99.90;;;;;;6185204;23;19997;-73
2021/10/21 08:11:34;;;;;;;32.13;3.83;;;15.90;99.90;;;;;;6182737;23;20072;-73
2021/10/21 08:14:00;;;;;;;26.02;3.65;;;16.00;99.90;;;;;;6182838;23;20012;-73
2021/10/21 08:16:26;;;;;;;20.20;3.15;;;16.10;99.90;;;;;;6181495;23;20480;-73
2021/10/21 08:18:52;;;;;;;27.02;4.00;;;16.10;99.90;;;;;;6182588;23;20085;-73
2021/10/21 08:21:18;;;;;;;18.20;2.50;;;16.20;99.90;;;;;;6183174;23;20063;-73
2021/10/21 08:23:44;;;;;;;25.30;3.63;;;16.20;99.90;;;;;;6182676;23;20001;-73
2021/10/21 08:26:09;;;;;;;29.42;3.13;;;16.00;99.90;;;;;;6182788;23;20300;-73
2021/10/21 08:28:35;;;;;;;18.50;2.45;;;16.00;99.90;;;;;;6182395;23;20001;-73
2021/10/21 08:31:01;;;;;;;21.75;2.20;;;15.90;99.90;;;;;;6182505;23;20009;-73
2021/10/21 08:33:27;;;;;;;16.08;2.38;;;15.90;99.90;;;;;;6182846;23;20029;-73
2021/10/21 08:35:52;;;;;;;15.38;2.30;;;15.80;99.90;;;;;;6182630;23;20005;-72
2021/10/21 08:38:18;;;;;;;14.95;2.15;;;15.80;99.90;;;;;;6182203;23;20001;-73
2021/10/21 08:40:45;;;;;;;15.48;2.53;;;15.90;99.90;;;;;;6182674;23;20005;-73
2021/10/21 08:43:10;;;;;;;22.98;3.25;;;16.00;99.90;;;;;;6182637;23;20025;-73
2021/10/21 08:45:36;;;;;;;18.30;2.85;;;16.00;99.90;;;;;;6182514;23;20060;-73
2021/10/21 08:48:04;;;;;;;24.25;3.72;;;16.00;99.90;;;;;;6182725;23;20060;-73
2021/10/21 08:50:33;;;;;;;16.10;2.72;;;15.90;99.90;;;;;;6182762;23;20011;-73
2021/10/21 08:53:00;;;;;;;17.98;2.53;;;16.00;99.90;;;;;;6182320;23;20149;-73
2021/10/21 08:55:26;;;;;;;24.10;4.95;;;16.10;99.90;;;;;;6184324;23;20001;-73
2021/10/21 08:57:51;;;;;;;21.38;2.40;;;16.20;99.90;;;;;;6182280;23;20442;-73
2021/10/21 09:00:18;;;;;;;21.38;3.08;;;16.30;99.90;;;;;;6184925;23;20001;-73
2021/10/21 09:02:55;;;;;;;19.85;2.40;;;16.20;99.90;;;;;;6182744;23;20055;-73
2021/10/21 09:08:13;;;;;;;14.10;2.00;;;16.10;99.90;;;;;;6182429;23;20008;-87
2021/10/21 09:10:46;;;;;;;18.40;2.85;;;16.10;99.90;;;;;;6182256;23;20005;-85
2021/10/21 09:13:18;;;;;;;14.60;2.00;;;16.20;99.90;;;;;;6182718;23;20008;-87
2021/10/21 09:15:49;;;;;;;21.88;2.92;;;16.40;99.90;;;;;;6182048;23;20011;-87
2021/10/21 09:18:15;;;;;;;20.02;2.50;;;16.40;99.90;;;;;;6182266;23;20454;-87
2021/10/21 09:20:48;;;;;;;17.95;1.80;;;16.40;99.90;;;;;;6180799;23;20005;-86
2021/10/21 09:23:16;;;;;;;13.40;2.13;;;16.40;99.90;;;;;;6182426;23;20001;-87
2021/10/21 09:25:44;;;;;;;17.13;1.85;;;16.50;99.90;;;;;;6180626;23;20033;-86
2021/10/21 09:28:23;;;;;;;10.48;2.00;;;16.50;99.90;;;;;;6180138;23;20009;-86
2021/10/21 09:30:52;;;;;;;12.07;2.50;;;16.60;99.90;;;;;;6182852;23;20334;-86
2021/10/21 09:33:18;;;;;;;17.13;1.92;;;16.60;99.90;;;;;;6181206;23;20087;-84
2021/10/21 09:35:55;;;;;;;9.70;1.92;;;16.60;99.90;;;;;;6182852;23;20032;-87
2021/10/21 09:38:26;;;;;;;14.38;2.08;;;16.60;99.90;;;;;;6182753;23;20024;-87
2021/10/21 09:40:53;;;;;;;13.63;1.60;;;16.30;99.90;;;;;;6183200;23;20054;-87
2021/10/21 09:43:28;;;;;;;10.15;1.92;;;16.20;99.90;;;;;;6180721;23;20001;-88
2021/10/21 09:45:54;;;;;;;17.17;2.00;;;16.20;99.90;;;;;;6183891;23;20438;-86
2021/10/21 09:48:22;;;;;;;13.00;1.67;;;16.20;99.90;;;;;;6181785;23;20005;-87
2021/10/21 09:50:48;;;;;;;13.35;2.00;;;16.30;99.90;;;;;;6181419;23;20323;-86
2021/10/21 09:53:23;;;;;;;12.35;1.45;;;16.40;99.90;;;;;;6181495;23;20008;-87
2021/10/21 09:55:50;;;;;;;9.25;1.42;;;16.40;99.90;;;;;;6181165;23;20001;-88
2021/10/21 09:58:19;;;;;;;13.57;1.80;;;16.40;99.90;;;;;;6179685;23;20032;-87
2021/10/21 10:00:45;;;;;;;13.02;1.63;;;16.40;99.90;;;;;;6181706;23;19997;-87
2021/10/21 10:03:19;;;;;;;10.27;1.42;;;16.50;99.90;;;;;;6179862;23;20048;-87
2021/10/21 10:05:55;;;;;;;11.85;1.27;;;16.60;99.90;;;;;;6179748;23;20028;-87
2021/10/21 10:08:25;;;;;;;12.57;1.60;;;16.60;99.90;;;;;;6179566;23;20442;-87
2021/10/21 10:10:53;;;;;;;17.45;1.77;;;16.50;99.90;;;;;;6179743;23;20388;-87
2021/10/21 10:13:20;;;;;;;18.85;1.70;;;16.60;99.90;;;;;;6178003;23;20005;-86
2021/10/21 10:15:48;;;;;;;18.92;1.92;;;16.70;99.90;;;;;;6182352;23;20009;-87
2021/10/21 10:18:23;;;;;;;20.50;3.47;;;16.80;99.90;;;;;;6179657;23;20088;-86
2021/10/21 10:20:52;;;;;;;21.70;3.17;;;16.90;99.90;;;;;;6180040;23;20091;-87
2021/10/21 10:23:20;;;;;;;16.90;2.33;;;17.00;99.90;;;;;;6181932;23;20456;-88
2021/10/21 10:25:52;;;;;;;15.95;2.60;;;16.90;99.90;;;;;;6182254;23;20001;-86
2021/10/21 10:28:18;;;;;;;18.63;2.80;;;17.00;99.90;;;;;;6181300;23;20054;-87
2021/10/21 10:30:48;;;;;;;16.17;2.10;;;17.20;99.90;;;;;;6179476;23;20348;-88
2021/10/21 10:33:38;;;;;;;19.13;2.10;;;17.20;99.90;;;;;;6181716;23;20400;-88
2021/10/21 10:36:24;;;;;;;17.77;3.03;;;17.20;99.90;;;;;;6180145;23;20001;-88
2021/10/21 10:39:01;;;;;;;20.15;3.10;;;17.20;99.90;;;;;;6181533;23;20001;-87
2021/10/21 10:41:48;;;;;;;15.07;2.13;;;17.50;99.90;;;;;;6180073;23;20060;-88
2021/10/21 10:44:35;;;;;;;15.10;2.53;;;17.60;99.90;;;;;;6179888;23;20013;-88
2021/10/21 10:47:03;;;;;;;13.48;1.73;;;17.60;99.90;;;;;;6181100;23;20411;-88
2021/10/21 10:49:38;;;;;;;16.13;2.63;;;17.60;99.90;;;;;;6189385;23;19993;-87
2021/10/21 10:52:04;;;;;;;19.30;2.38;;;17.60;99.90;;;;;;6191004;23;20001;-88
2021/10/21 10:54:39;;;;;;;19.40;2.35;;;17.50;99.90;;;;;;6192441;23;20227;-87
2021/10/21 10:57:12;;;;;;;15.52;2.45;;;17.50;99.90;;;;;;6192721;23;19993;-87
2021/10/21 10:59:42;;;;;;;17.92;3.60;;;17.40;99.90;;;;;;6181897;23;20005;-88
2021/10/21 11:02:26;;;;;;;18.50;2.67;;;17.50;99.90;;;;;;6182588;23;20008;-88
2021/10/21 11:04:54;;;;;;;23.00;3.65;;;17.60;99.90;;;;;;6183809;23;20080;-87
2021/10/21 11:07:20;;;;;;;14.95;2.22;;;17.80;99.90;;;;;;6183858;23;20001;-86
2021/10/21 11:09:46;;;;;;;20.30;2.38;;;18.20;99.90;;;;;;6184087;23;20001;-87
2021/10/21 11:12:27;;;;;;;22.25;2.90;;;18.30;99.90;;;;;;6184217;23;20059;-87
2021/10/21 11:14:56;;;;;;;16.10;3.08;;;18.00;99.90;;;;;;6183676;23;20033;-88
2021/10/21 11:17:51;;;;;;;21.10;2.90;;;17.90;99.90;;;;;;6181234;23;20017;-87
2021/10/21 11:20:34;;;;;;;13.18;2.33;;;17.70;99.90;;;;;;6158590;23;20012;-87
2021/10/21 11:23:05;;;;;;;19.02;2.10;;;17.50;99.90;;;;;;6188032;23;20055;-87
2021/10/21 11:25:38;;;;;;;18.10;2.72;;;17.40;99.90;;;;;;6182243;23;20032;-87
2021/10/21 11:28:05;;;;;;;21.73;3.10;;;17.40;99.90;;;;;;6183212;23;20005;-87
2021/10/21 11:30:37;;;;;;;18.40;2.65;;;17.50;99.90;;;;;;6181731;23;20008;-87
2021/10/21 11:33:05;;;;;;;19.45;3.17;;;17.50;99.90;;;;;;6183801;23;19997;-87
2021/10/21 11:35:36;;;;;;;15.13;2.80;;;17.60;99.90;;;;;;6185853;23;19989;-88
2021/10/21 11:38:16;;;;;;;18.83;2.95;;;17.60;99.90;;;;;;6184792;23;19998;-88
2021/10/21 11:40:43;;;;;;;30.88;3.50;;;17.70;99.90;;;;;;6183860;23;20001;-88
2021/10/21 11:43:24;;;;;;;18.95;3.05;;;17.80;99.90;;;;;;6182137;23;20205;-87
2021/10/21 11:45:59;;;;;;;20.40;2.90;;;17.90;99.90;;;;;;6184053;23;20339;-88
2021/10/21 11:48:31;;;;;;;14.55;2.70;;;18.00;99.90;;;;;;6181876;23;20025;-88
2021/10/21 11:50:57;;;;;;;20.05;2.88;;;18.00;99.90;;;;;;6183619;23;20438;-88
2021/10/21 11:53:23;;;;;;;23.67;3.28;;;18.30;99.90;;;;;;6184202;23;19997;-88
2021/10/21 11:55:55;;;;;;;21.90;2.70;;;18.40;99.90;;;;;;6190750;23;20229;-73
2021/10/21 11:58:30;;;;;;;19.35;2.72;;;18.50;99.90;;;;;;6185678;23;19989;-73
2021/10/21 12:00:58;;;;;;;16.83;2.72;;;18.30;99.90;;;;;;6182432;23;20723;-74
2021/10/21 12:03:51;;;;;;;21.92;2.50;;;18.00;99.90;;;;;;6182672;23;20004;-73
2021/10/21 12:06:17;;;;;;;16.75;2.33;;;17.80;99.90;;;;;;6184407;23;20013;-73
2021/10/21 12:08:54;;;;;;;24.02;3.22;;;17.90;99.90;;;;;;6183121;23;20024;-74
2021/10/21 12:11:21;;;;;;;25.70;3.60;;;18.00;99.90;;;;;;6184599;23;20005;-73
2021/10/21 12:13:46;;;;;;;19.67;3.38;;;17.80;99.90;;;;;;6183043;23;20074;-73
2021/10/21 12:16:16;;;;;;;20.27;3.20;;;17.80;99.90;;;;;;6182314;23;20490;-73
2021/10/21 12:18:42;;;;;;;18.83;2.47;;;17.80;99.90;;;;;;6184776;23;20007;-73
2021/10/21 12:21:08;;;;;;;23.65;2.75;;;17.60;99.90;;;;;;6182950;23;20025;-73
2021/10/21 12:23:44;;;;;;;16.13;2.90;;;17.60;99.90;;;;;;6187140;23;20001;-73
2021/10/21 12:26:18;;;;;;;22.92;3.47;;;17.70;99.90;;;;;;6183054;23;20048;-74
2021/10/21 12:28:48;;;;;;;;;;;17.80;99.90;;;;;;6183420;23;20008;-73
2021/10/21 12:31:15;;;;;;;24.92;3.50;;;17.90;99.90;;;;;;6183629;23;20301;-73
2021/10/21 12:34:12;;;;;;;28.02;3.80;;;18.00;99.90;;;;;;6182452;23;20331;-73
2021/10/21 12:36:44;;;;;;;17.30;3.10;;;18.10;99.90;;;;;;6158305;23;20079;-73
2021/10/21 12:39:12;;;;;;;25.33;3.90;;;18.00;99.90;;;;;;6181876;23;20383;-73
2021/10/21 12:41:48;;;;;;;18.88;3.30;;;18.00;99.90;;;;;;6182558;23;20043;-73
2021/10/21 12:44:17;;;;;;;23.10;3.83;;;18.10;99.90;;;;;;6181990;23;20013;-73